createdAt,value
2022-07-28T00:00:28.550Z,8.353204
2022-07-28T00:05:30.065Z,8.384374
2022-07-28T00:10:32.793Z,7.643262
2022-07-28T00:15:34.278Z,8.489402
2022-07-28T00:20:35.718Z,7.963204
2022-07-28T00:25:37.200Z,7.600016
2022-07-28T00:30:38.783Z,7.633112
2022-07-28T00:35:40.450Z,7.74931
2022-07-28T00:40:50.166Z,7.579716
2022-07-28T00:45:51.752Z,7.56928
2022-07-28T00:50:53.565Z,8.25732
2022-07-28T00:56:06.353Z,8.705088
2022-07-28T01:01:08.424Z,7.20521
2022-07-28T01:06:09.856Z,6.924538
2022-07-28T01:11:11.889Z,7.486316
2022-07-28T01:16:13.349Z,7.953664
2022-07-28T01:21:14.841Z,7.825404
2022-07-28T01:26:16.291Z,8.29792
2022-07-28T01:31:17.887Z,8.017372
2022-07-28T01:36:19.390Z,7.890714
2022-07-28T01:41:21.097Z,7.68226
2022-07-28T01:46:22.836Z,7.453506
2022-07-28T01:51:24.322Z,7.882452
2022-07-28T01:56:25.929Z,7.302572
2022-07-28T02:01:27.479Z,7.421726
2022-07-28T02:06:29.152Z,7.202402
2022-07-28T02:11:32.204Z,7.628702
2022-07-28T02:16:33.859Z,7.824236
2022-07-28T02:21:36.330Z,8.019732
2022-07-28T02:26:38.031Z,8.102858
2022-07-28T02:31:40.499Z,9.041244
2022-07-28T02:36:43.581Z,8.929432
2022-07-28T02:41:47.948Z,8.97858
2022-07-28T02:46:49.488Z,8.819112
2022-07-28T02:51:51.135Z,8.611688
2022-07-28T02:56:53.446Z,8.02387
2022-07-28T03:01:55.914Z,7.401898
2022-07-28T03:06:57.411Z,8.1508
2022-07-28T03:12:00.922Z,7.715952
2022-07-28T03:17:02.507Z,7.176114
2022-07-28T03:22:04.442Z,7.693764
2022-07-28T03:27:06.546Z,7.767908
2022-07-28T03:32:08.019Z,7.264494
2022-07-28T03:37:10.033Z,7.78909
2022-07-28T03:42:12.225Z,7.620502
2022-07-28T03:47:14.069Z,7.927662
2022-07-28T03:52:15.515Z,8.199786
2022-07-28T03:57:17.214Z,7.82528
2022-07-28T04:02:18.724Z,7.662432
2022-07-28T04:07:20.590Z,7.71097
2022-07-28T04:12:22.489Z,8.393966
2022-07-28T04:17:24.827Z,7.911772
2022-07-28T04:22:26.669Z,7.636082
2022-07-28T04:27:28.263Z,7.653164
2022-07-28T04:32:29.730Z,8.086968
2022-07-28T04:37:32.383Z,8.143024
2022-07-28T04:42:34.523Z,8.07196
2022-07-28T04:47:36.282Z,8.08477
2022-07-28T04:52:38.013Z,8.310268
2022-07-28T04:57:39.739Z,7.674794
2022-07-28T05:02:41.182Z,8.770126
2022-07-28T05:07:42.622Z,8.383978
2022-07-28T05:12:44.308Z,8.606396
2022-07-28T05:17:45.917Z,8.863674
2022-07-28T05:22:47.505Z,8.353962
2022-07-28T05:27:48.955Z,9.002694
2022-07-28T05:32:50.726Z,9.340738
2022-07-28T05:37:52.710Z,8.058892
2022-07-28T05:42:54.553Z,9.029616
2022-07-28T05:47:56.008Z,9.365896
2022-07-28T05:52:57.486Z,8.575784
2022-07-28T05:57:58.951Z,7.941464
2022-07-28T06:03:00.626Z,8.404402
2022-07-28T06:08:02.147Z,8.298926
2022-07-28T06:13:03.840Z,8.53281
2022-07-28T06:18:05.388Z,7.959552
2022-07-28T06:23:06.856Z,8.097242
2022-07-28T06:28:08.538Z,7.952496
2022-07-28T06:33:12.774Z,7.647386
2022-07-28T06:38:18.543Z,7.65325
2022-07-28T06:43:21.701Z,8.980306
2022-07-28T06:48:25.821Z,8.017806
2022-07-28T06:53:33.459Z,8.99652
2022-07-28T06:58:36.011Z,9.778966
2022-07-28T07:03:37.440Z,9.493436
2022-07-28T07:08:39.076Z,9.530508
2022-07-28T07:13:40.989Z,8.684664
2022-07-28T07:18:42.564Z,8.674476
2022-07-28T07:23:44.140Z,9.951964
2022-07-28T07:28:46.771Z,9.971272
2022-07-28T07:33:48.359Z,9.871198
2022-07-28T07:38:49.935Z,10.59938
2022-07-28T07:43:51.848Z,10.157624
2022-07-28T07:48:53.326Z,10.366526
2022-07-28T07:53:54.802Z,10.816396
2022-07-28T07:58:57.253Z,12.718748
2022-07-28T08:03:58.933Z,11.394974
2022-07-28T08:09:00.397Z,12.481132
2022-07-28T08:14:02.663Z,12.481404
2022-07-28T08:19:04.129Z,12.350946
2022-07-28T08:24:07.605Z,12.456598
2022-07-28T08:29:09.041Z,12.646464
2022-07-28T08:34:29.866Z,12.933676
2022-07-28T08:39:35.018Z,11.856052
2022-07-28T08:44:36.689Z,12.939578
2022-07-28T08:49:39.363Z,13.619942
2022-07-28T08:54:42.551Z,15.890276
2022-07-28T08:59:44.239Z,15.799984
2022-07-28T09:04:45.784Z,16.807496
2022-07-28T09:09:47.243Z,16.141584
2022-07-28T09:14:49.034Z,16.60147
2022-07-28T09:19:50.837Z,17.34922
2022-07-28T09:24:52.514Z,17.530428
2022-07-28T09:29:54.027Z,18.121776
2022-07-28T09:34:55.598Z,18.203424
2022-07-28T09:39:57.017Z,18.063508
2022-07-28T09:45:21.262Z,18.074472
2022-07-28T09:50:24.394Z,17.919114
2022-07-28T09:55:25.837Z,16.767954
2022-07-28T10:00:27.903Z,17.435984
2022-07-28T10:05:30.169Z,17.465742
2022-07-28T10:10:32.179Z,19.001776
2022-07-28T10:15:34.138Z,18.387834
2022-07-28T10:20:35.666Z,18.601528
2022-07-28T10:25:37.361Z,18.798382
2022-07-28T10:30:39.271Z,19.943382
2022-07-28T10:35:52.519Z,19.07801
2022-07-28T10:40:56.998Z,19.034682
2022-07-28T10:46:05.594Z,18.939098
2022-07-28T10:51:08.534Z,19.24364
2022-07-28T10:56:10.214Z,18.58078
2022-07-28T11:01:26.663Z,18.627934
2022-07-28T11:06:47.811Z,17.914148
2022-07-28T11:11:49.245Z,17.117154
2022-07-28T11:16:51.591Z,16.980508
2022-07-28T11:21:53.060Z,16.712076
2022-07-28T11:26:54.551Z,17.11026
2022-07-28T11:31:56.219Z,16.791512
2022-07-28T11:36:57.861Z,16.978568
2022-07-28T11:41:59.369Z,17.472174
2022-07-28T11:47:01.889Z,17.566184
2022-07-28T11:52:03.351Z,17.071424
2022-07-28T11:57:05.273Z,17.040526
2022-07-28T12:02:06.903Z,17.5759
2022-07-28T12:07:08.378Z,17.45224
2022-07-28T12:12:10.945Z,16.894084
2022-07-28T12:17:13.162Z,16.593002
2022-07-28T12:22:16.212Z,17.336682
2022-07-28T12:27:17.678Z,18.569124
2022-07-28T12:32:19.820Z,17.202954
2022-07-28T12:37:21.369Z,17.302962
2022-07-28T12:42:22.834Z,17.402006
2022-07-28T12:47:24.584Z,17.501566
2022-07-28T12:52:26.233Z,16.720638
2022-07-28T12:57:27.904Z,16.464648
2022-07-28T13:02:29.650Z,15.920292
2022-07-28T13:07:31.534Z,15.552924
2022-07-28T13:12:33.013Z,15.469512
2022-07-28T13:17:35.199Z,15.642252
2022-07-28T13:22:36.761Z,14.65082
2022-07-28T13:27:38.252Z,14.861162
2022-07-28T13:32:40.096Z,15.119608
2022-07-28T13:37:43.450Z,15.254136
2022-07-28T13:42:53.176Z,15.327126
2022-07-28T13:47:58.889Z,15.181756
2022-07-28T13:53:00.337Z,15.106634
2022-07-28T13:58:08.247Z,14.837334
2022-07-28T14:03:10.661Z,14.926648
2022-07-28T14:08:13.263Z,15.170276
2022-07-28T14:13:14.690Z,15.348932
2022-07-28T14:18:16.714Z,15.11555
2022-07-28T14:23:18.242Z,14.615144
2022-07-28T14:28:19.781Z,15.091722
2022-07-28T14:33:21.640Z,14.731924
2022-07-28T14:38:52.506Z,15.344074
2022-07-28T14:43:55.368Z,15.215286
2022-07-28T14:48:57.467Z,15.126486
2022-07-28T14:53:58.954Z,14.348232
2022-07-28T14:59:00.438Z,15.28582
2022-07-28T15:04:02.221Z,15.188186
2022-07-28T15:09:03.886Z,14.964072
2022-07-28T15:14:05.466Z,15.165946
2022-07-28T15:19:07.266Z,14.638104
2022-07-28T15:24:08.804Z,14.491838
2022-07-28T15:29:10.278Z,14.814726
2022-07-28T15:34:13.277Z,14.663344
2022-07-28T15:39:15.035Z,14.53332
2022-07-28T15:44:17.122Z,14.825934
2022-07-28T15:49:27.592Z,13.607498
2022-07-28T15:54:29.078Z,14.352914
2022-07-28T15:59:49.958Z,14.31055
2022-07-28T16:04:54.364Z,14.090684
2022-07-28T16:09:56.328Z,14.329616
2022-07-28T16:14:57.794Z,14.381504
2022-07-28T16:20:02.490Z,15.2445
2022-07-28T16:25:04.355Z,15.29905
2022-07-28T16:30:05.973Z,15.198784
2022-07-28T16:35:07.437Z,14.75312
2022-07-28T16:40:08.891Z,15.176802
2022-07-28T16:45:10.434Z,15.139648
2022-07-28T16:50:12.315Z,14.884106
2022-07-28T16:55:16.125Z,14.731042
2022-07-28T17:00:20.749Z,13.953846
2022-07-28T17:05:22.397Z,15.049696
2022-07-28T17:10:27.174Z,14.614534
2022-07-28T17:15:29.292Z,14.048996
2022-07-28T17:20:31.072Z,13.945284
2022-07-28T17:25:59.215Z,14.270898
2022-07-28T17:31:22.802Z,14.596174
2022-07-28T17:36:24.623Z,14.14169
2022-07-28T17:41:26.064Z,14.053678
2022-07-28T17:46:27.638Z,13.668736
2022-07-28T17:51:29.550Z,13.473498
2022-07-28T17:56:31.229Z,13.466266
2022-07-28T18:01:32.836Z,13.203396
2022-07-28T18:06:35.247Z,13.496892
2022-07-28T18:11:55.279Z,13.41656
2022-07-28T18:16:57.933Z,12.801168
2022-07-28T18:21:59.709Z,12.866926
2022-07-28T18:27:01.293Z,11.998394
2022-07-28T18:32:02.724Z,12.229036
2022-07-28T18:37:04.444Z,11.344004
2022-07-28T18:42:06.083Z,11.97245
2022-07-28T18:47:07.524Z,11.782246
2022-07-28T18:52:09.449Z,11.910668
2022-07-28T18:57:10.935Z,11.498466
2022-07-28T19:02:12.600Z,11.579666
2022-07-28T19:07:14.416Z,11.790456
2022-07-28T19:12:15.975Z,11.230142
2022-07-28T19:17:17.406Z,11.417266
2022-07-28T19:22:19.115Z,10.953256
2022-07-28T19:27:20.557Z,11.291314
2022-07-28T19:32:22.006Z,11.30544
2022-07-28T19:37:23.434Z,11.19174
2022-07-28T19:42:24.987Z,11.695292
2022-07-28T19:47:26.551Z,11.882254
2022-07-28T19:52:28.255Z,11.291314
2022-07-28T19:57:29.726Z,11.778704
2022-07-28T20:02:31.207Z,11.779152
2022-07-28T20:07:32.820Z,11.507734
2022-07-28T20:12:36.595Z,11.203764
2022-07-28T20:17:39.739Z,11.345768
2022-07-28T20:22:41.891Z,11.0396
2022-07-28T20:27:43.414Z,11.046818
2022-07-28T20:32:44.873Z,11.464312
2022-07-28T20:37:46.511Z,10.548844
2022-07-28T20:42:52.849Z,10.730066
2022-07-28T20:47:54.636Z,9.078478
2022-07-28T20:52:56.491Z,10.314064
2022-07-28T20:57:58.068Z,9.987648
2022-07-28T21:02:59.662Z,10.09505
2022-07-28T21:08:05.696Z,10.097372
2022-07-28T21:13:10.534Z,10.127932
2022-07-28T21:18:12.307Z,9.753412
2022-07-28T21:23:17.561Z,9.764282
2022-07-28T21:28:19.141Z,9.136408
2022-07-28T21:33:22.853Z,9.119526
2022-07-28T21:38:24.710Z,9.220306
2022-07-28T21:43:26.358Z,9.186886
2022-07-28T21:48:27.843Z,8.854854
2022-07-28T21:53:29.833Z,9.393142
2022-07-28T21:58:31.320Z,9.12703
2022-07-28T22:03:33.381Z,9.055532
2022-07-28T22:08:35.058Z,9.205136
2022-07-28T22:13:36.641Z,9.526694
2022-07-28T22:18:38.196Z,9.462538
2022-07-28T22:23:40.091Z,9.412112
2022-07-28T22:28:41.850Z,9.39298
2022-07-28T22:33:43.534Z,9.395626
2022-07-28T22:38:45.445Z,9.564486
2022-07-28T22:43:47.408Z,9.196874
2022-07-28T22:48:49.043Z,9.462986
2022-07-28T22:53:50.989Z,9.568624
2022-07-28T22:58:52.553Z,9.47418
2022-07-28T23:03:54.199Z,9.503028
2022-07-28T23:08:55.991Z,9.379302
2022-07-28T23:13:57.933Z,8.614782
2022-07-28T23:18:59.755Z,9.051966
2022-07-28T23:24:01.685Z,8.33042
2022-07-28T23:29:03.472Z,7.514282
2022-07-28T23:34:04.970Z,7.794668
2022-07-28T23:39:06.838Z,8.410452
2022-07-28T23:44:08.909Z,8.557844
2022-07-28T23:49:10.588Z,8.45017
2022-07-28T23:54:14.275Z,8.228186
2022-07-28T23:59:16.649Z,8.36395
